Aviation Digital Data Service (ADDS)

Output produced by METARs form (1649 UTC 24 August 2019)
found at http://www.aviationweather.gov/metar/data/
 
RJTT 241630Z 09010KT 9999 -SHRA FEW010 SCT015 BKN150 26/24 Q1007 NOSIG RMK 1CU010 3CU015 7AC150 A2975
RJTT 241600Z 10010KT 9999 -SHRA FEW010 SCT015 BKN150 26/24 Q1007 NOSIG RMK 1CU010 3CU015 7AC150 A2976
TAF RJTT 241108Z 2412/2518 20008KT 9999 FEW020 
     BECMG 2414/2416 03006KT 
     TEMPO 2417/2420 4000 -SHRA BR FEW005 BKN008 
     BECMG 2500/2503 12008KT 
     BECMG 2503/2506 18014KT 
     BECMG 2515/2518 08008KT
       
RJAA 241630Z 12004KT 080V140 6000 -SHRA FEW015 SCT030 BKN140 24/23 Q1008 NOSIG RMK 1CU015 3CU030 7AC140 A2977
RJAA 241600Z 07004KT 6000 -SHRA FEW025 SCT035 BKN050 24/23 Q1008 NOSIG RMK 1CU025 3CU035 5SC050 A2977
TAF AMD RJAA 241604Z 2416/2518 03006KT 8000 -SHRA FEW015 BKN030 
     BECMG 2503/2506 13008KT 
     BECMG 2512/2515 04006KT
       
RJGG 241630Z 27017KT 9999 FEW020 BKN160 25/20 Q1009 NOSIG
RJGG 241600Z 27018KT 9999 VCSH FEW020 BKN160 25/21 Q1009 NOSIG
TAF RJGG 241107Z 2412/2518 28014KT 9999 FEW020 
     BECMG 2500/2503 20006KT 
     BECMG 2506/2509 32014KT
       
RJBB 241630Z AUTO 21010KT 9999 NSC 24/22 Q1010 NOSIG
RJBB 241600Z AUTO 20009KT 9999 NSC 24/22 Q1010 NOSIG
TAF RJBB 241105Z 2412/2518 23012KT 9999 -RA FEW015 BKN045 
     BECMG 2418/2420 31010KT 
     BECMG 2500/2503 23010KT 
     BECMG 2512/2515 04006KT
       
TAF RJOO 241107Z 2412/2518 32005KT 9999 -RA FEW020 BKN045 
     BECMG 2500/2503 22008KT 
     BECMG 2509/2512 32005KT
       
RJFF 241630Z AUTO 16010KT 9999 NSC 20/18 Q1012 NOSIG RMK A2989
RJFF 241600Z AUTO 16012KT 9999 NSC 21/18 Q1012 NOSIG RMK A2990
TAF RJFF 241106Z 2412/2518 15012KT 9000 -RA FEW020 SCT030
       
ROAH 241630Z 15010KT 9999 FEW013 SCT020 29/26 Q1011 RMK 2CU013 3CU020 A2986
ROAH 241600Z 15009KT 9999 FEW015 SCT020 29/27 Q1011 RMK 2CU015 4CU020 A2986
TAF ROAH 241105Z 2412/2518 15012KT 9999 FEW015
       
RJCC 241630Z 35006KT 9999 FEW015 SCT040 16/15 Q1007 RMK 1ST015 4CU040 A2974
RJCC 241600Z 01004KT 9999 FEW015 SCT040 16/15 Q1006 RMK 1ST015 4CU040 A2973
TAF RJCC 241107Z 2412/2518 33006KT 9999 FEW015 BKN035 
     BECMG 2500/2503 34017KT 
     BECMG 2512/2515 33007KT
       
TAF RJEC 241114Z 2412/2518 32003KT 9999 FEW008 BKN015 
     TEMPO 2415/2422 3000 BR FEW003 BKN006
       
TAF RJCK 241110Z 2412/2518 30005KT 9999 FEW003 BKN015 
     TEMPO 2412/2422 1500 BR FEW001 BKN003 
     BECMG 2422/2500 18006KT 
     BECMG 2506/2509 03004KT
       
TAF RJSA 241111Z 2412/2518 21005KT 9999 FEW010 BKN020 BKN030 
     TEMPO 2412/2415 3000 SHRA BR FEW005 BKN008 BKN015 
     BECMG 2500/2503 27010KT 
     BECMG 2509/2512 21004KT
       
TAF RJSK 241107Z 2412/2518 30005KT 9999 FEW020 BKN030 
     BECMG 2412/2414 14004KT 
     TEMPO 2417/2421 4000 SHRA BR FEW005 BKN008 BKN015 
     BECMG 2500/2503 28010KT 
     BECMG 2512/2515 14004KT
       
TAF RJSN 241106Z 2412/2518 20005KT 9999 FEW010 SCT030 
     TEMPO 2412/2413 -TSRA FEW015 BKN030 FEW030CB 
     TEMPO 2421/2500 4000 -SHRA BR 
     BECMG 2500/2503 35010KT 
     BECMG 2506/2509 02008KT
       
TAF RJSF 241109Z 2412/2518 36005KT 9999 FEW030 SCT050
       
TAF RJSS 241114Z 2412/2518 34004KT 9999 FEW020 SCT040 
     BECMG 2500/2503 14008KT 
     BECMG 2512/2515 34005KT
       
TAF RJOK 241108Z 2412/2518 35005KT 9000 -RA FEW010 SCT050 BKN070 
     TEMPO 2412/2414 4000 RA BR 
     BECMG 2500/2503 19006KT 
     BECMG 2509/2512 35005KT
       
TAF RJOM 241106Z 2412/2518 20008KT 9000 -RA FEW025 BKN070 
     BECMG 2500/2503 26007KT 
     BECMG 2509/2512 12006KT
       
TAF RJFO 241110Z 2412/2518 24007KT 8000 -SHRA FEW010 SCT020 BKN030 
     TEMPO 2412/2415 4000 SHRA BR 
     BECMG 2506/2509 30004KT
       
TAF RJFU 241116Z 2412/2518 14006KT 8000 -SHRA FEW005 SCT015 BKN040 
     TEMPO 2412/2415 4000 -SHRA BR 
     TEMPO 2421/2506 3000 SHRA BR
       
TAF RJFT 241112Z 2412/2518 03004KT 8000 -SHRA FEW005 BKN010 BKN015 
     TEMPO 2412/2415 1500 SHRA BR FEW001 BKN005 BKN007 
     TEMPO 2415/2421 4000 -SHRA BR FEW001 BKN005 BKN007 
     TEMPO 2421/2506 3000 SHRA BR FEW001 BKN005 BKN010 
     TEMPO 2506/2512 4000 SHRA BR FEW003 BKN008 BKN010 
     BECMG 2509/2512 24005KT
       
TAF AMD RJFK 241551Z 2415/2518 01006KT 6000 -SHRA FEW003 SCT008 BKN010 
     TEMPO 2415/2421 0500 -SHRA FG FEW001 BKN002 BKN003 
     TEMPO 2421/2423 1500 -SHRA BR FEW002 BKN005 BKN008 
     BECMG 2509/2512 08003KT 
     TEMPO 2515/2518 1500 SHRA BR FEW002 BKN005 BKN008
       
TAF RJFM 241109Z 2412/2518 03010KT 8000 -SHRA FEW005 SCT010 BKN020 
     TEMPO 2412/2415 4000 -SHRA BR FEW003 BKN007 BKN010 
     TEMPO 2415/2418 3000 SHRA BR FEW003 BKN007 BKN010 
     BECMG 2506/2509 10005KT 
     TEMPO 2512/2518 4000 -SHRA BR FEW003 BKN007 BKN010